Time;durP1;ratioP1;P1;durP2;ratioP2;P2;SDS_P1;SDS_P2;PMS_P1;PMS_P2;Temp;Humidity;BMP_temperature;BMP_pressure;BME280_temperature;BME280_humidity;BME280_pressure;Samples;Min_cycle;Max_cycle;Signal;HPM_P1;HPM_P2
2021/12/26 00:00:32;;;;;;;3.67;2.73;;;1.70;83.50;;;;;;5053624;28;20901;-73
2021/12/26 00:03:00;;;;;;;3.40;2.43;;;1.70;83.20;;;;;;5058359;28;20503;-75
2021/12/26 00:05:28;;;;;;;3.67;2.60;;;1.70;82.70;;;;;;5027415;28;20443;-75
2021/12/26 00:07:54;;;;;;;4.70;2.93;;;1.70;82.80;;;;;;5074744;28;20445;-74
2021/12/26 00:10:24;;;;;;;6.67;3.20;;;1.70;83.10;;;;;;5060365;28;20488;-73
2021/12/26 00:12:51;;;;;;;5.70;3.10;;;1.70;82.60;;;;;;5054645;28;20488;-75
2021/12/26 00:15:17;;;;;;;4.87;2.90;;;1.70;82.80;;;;;;5059391;28;20454;-73
2021/12/26 00:17:43;;;;;;;5.60;2.87;;;1.70;82.70;;;;;;5073808;28;20460;-73
2021/12/26 00:20:12;;;;;;;10.30;2.67;;;1.70;82.40;;;;;;5072169;28;20434;-74
2021/12/26 00:22:41;;;;;;;6.50;2.90;;;1.70;82.20;;;;;;5072922;28;20645;-75
2021/12/26 00:25:14;;;;;;;6.20;2.20;;;1.60;82.40;;;;;;5054653;28;20447;-74
2021/12/26 00:27:42;;;;;;;4.40;2.27;;;1.60;82.40;;;;;;5073018;28;20392;-75
2021/12/26 00:30:12;;;;;;;3.93;2.60;;;1.60;82.80;;;;;;5054028;28;20548;-73
2021/12/26 00:32:39;;;;;;;3.67;2.80;;;1.60;81.90;;;;;;5053971;28;20465;-73
2021/12/26 00:35:06;;;;;;;4.23;2.93;;;1.60;82.00;;;;;;5051449;28;20475;-72
2021/12/26 00:37:33;;;;;;;4.50;2.77;;;1.60;82.30;;;;;;5051991;28;20444;-73
2021/12/26 00:40:00;;;;;;;5.00;2.70;;;1.60;82.60;;;;;;5061304;28;20419;-73
2021/12/26 00:42:25;;;;;;;3.30;2.63;;;1.60;82.40;;;;;;5071462;28;20422;-74
2021/12/26 00:44:52;;;;;;;4.67;2.67;;;1.60;82.50;;;;;;5064308;28;20929;-73
2021/12/26 00:47:18;;;;;;;4.13;2.57;;;1.60;82.30;;;;;;5053004;28;20439;-74
2021/12/26 00:49:43;;;;;;;6.83;3.20;;;1.60;81.90;;;;;;5053282;28;20190;-74
2021/12/26 00:52:10;;;;;;;4.33;2.87;;;1.60;82.00;;;;;;5051457;28;20435;-74
2021/12/26 00:54:36;;;;;;;4.70;2.63;;;1.60;82.40;;;;;;5053083;28;20448;-75
2021/12/26 00:57:03;;;;;;;4.93;2.30;;;1.60;82.00;;;;;;5053644;28;20176;-75
2021/12/26 00:59:28;;;;;;;4.47;2.40;;;1.60;81.80;;;;;;5051767;28;20280;-74
2021/12/26 01:01:55;;;;;;;2.67;2.07;;;1.60;81.90;;;;;;5068069;28;20439;-75
2021/12/26 01:04:22;;;;;;;4.70;3.43;;;1.60;82.20;;;;;;5052222;28;20186;-72
2021/12/26 01:06:48;;;;;;;4.50;2.80;;;1.60;82.30;;;;;;5053843;28;20432;-76
2021/12/26 01:09:20;;;;;;;4.93;2.87;;;1.60;82.40;;;;;;5053217;28;20914;-75
2021/12/26 01:11:51;;;;;;;5.90;2.60;;;1.70;82.70;;;;;;5072783;28;20411;-74
2021/12/26 01:14:26;;;;;;;3.63;2.60;;;1.70;82.30;;;;;;5069762;28;20880;-72
2021/12/26 01:17:14;;;;;;;3.70;2.30;;;1.70;81.80;;;;;;5052932;28;20947;-73
2021/12/26 01:20:28;;;;;;;9.07;4.97;;;1.70;82.00;;;;;;5055009;28;20420;-77
2021/12/26 01:22:55;;;;;;;7.00;3.53;;;1.70;82.50;;;;;;5069500;28;20415;-80
2021/12/26 01:25:21;;;;;;;6.33;3.00;;;1.80;82.70;;;;;;5087984;28;20450;-78
2021/12/26 01:27:47;;;;;;;9.73;5.80;;;1.80;82.60;;;;;;5088979;28;20176;-79
2021/12/26 01:30:13;;;;;;;8.30;4.50;;;1.80;82.30;;;;;;5077111;28;20209;-79
2021/12/26 01:32:46;;;;;;;3.77;2.63;;;1.80;82.20;;;;;;5073772;28;20419;-79
2021/12/26 01:35:42;;;;;;;4.33;2.63;;;1.90;82.40;;;;;;5066796;28;20479;-79
2021/12/26 01:38:28;;;;;;;4.67;2.90;;;1.90;82.70;;;;;;5057248;28;20466;-78
2021/12/26 01:41:23;;;;;;;3.70;2.83;;;1.90;81.90;;;;;;5063972;28;20460;-79
2021/12/26 01:44:04;;;;;;;8.73;2.80;;;1.90;82.10;;;;;;5060374;28;20505;-79
2021/12/26 01:46:46;;;;;;;4.43;2.47;;;1.90;82.30;;;;;;5062400;28;20431;-79
2021/12/26 01:49:15;;;;;;;4.57;2.73;;;1.90;82.40;;;;;;5076634;28;20443;-81
2021/12/26 01:51:42;;;;;;;5.93;2.40;;;1.90;82.40;;;;;;5071627;28;20451;-81
2021/12/26 01:54:11;;;;;;;6.30;3.57;;;1.90;82.20;;;;;;5067667;28;20432;-78
2021/12/26 01:56:38;;;;;;;5.33;3.13;;;1.90;82.10;;;;;;5079827;28;20539;-81
2021/12/26 01:59:07;;;;;;;6.57;3.40;;;1.90;82.40;;;;;;5064492;28;20871;-80
2021/12/26 02:01:46;;;;;;;8.40;2.70;;;1.90;82.60;;;;;;5076240;28;20412;-80
2021/12/26 02:04:12;;;;;;;4.30;3.00;;;1.80;82.30;;;;;;5079421;28;20494;-80
2021/12/26 02:06:38;;;;;;;3.53;2.47;;;1.80;82.60;;;;;;5074003;28;20180;-80
2021/12/26 02:09:04;;;;;;;4.63;3.00;;;1.80;82.80;;;;;;5078039;28;20447;-79
2021/12/26 02:11:31;;;;;;;4.47;2.67;;;1.70;83.10;;;;;;5078160;28;20422;-81
2021/12/26 02:13:58;;;;;;;5.43;3.17;;;1.70;83.60;;;;;;5053326;28;20438;-78
2021/12/26 02:16:28;;;;;;;5.17;2.80;;;1.60;83.90;;;;;;5058101;28;20574;-79
2021/12/26 02:18:53;;;;;;;4.80;3.03;;;1.60;84.10;;;;;;5042118;28;20435;-78
2021/12/26 02:24:25;;;;;;;3.70;3.10;;;1.60;84.60;;;;;;5043710;28;20277;-78
2021/12/26 02:29:39;;;;;;;4.57;3.23;;;1.50;85.10;;;;;;5069414;28;20439;-78
2021/12/26 02:32:06;;;;;;;3.77;2.70;;;1.50;85.30;;;;;;5067898;28;20431;-80
2021/12/26 02:34:31;;;;;;;5.67;3.10;;;1.50;85.60;;;;;;5055270;28;20201;-78
2021/12/26 02:36:57;;;;;;;7.20;3.60;;;1.50;85.80;;;;;;5059980;28;20437;-78
2021/12/26 02:39:23;;;;;;;6.27;3.13;;;1.50;86.00;;;;;;5072128;28;20173;-80
2021/12/26 02:41:49;;;;;;;6.87;3.70;;;1.50;86.10;;;;;;5062328;28;20169;-80
2021/12/26 02:44:15;;;;;;;4.57;3.70;;;1.50;86.10;;;;;;5042654;28;20439;-80
2021/12/26 02:46:42;;;;;;;4.67;3.03;;;1.60;86.20;;;;;;5042558;28;20415;-80
2021/12/26 02:49:08;;;;;;;4.30;2.80;;;1.70;85.80;;;;;;5062387;28;20460;-80
2021/12/26 02:51:36;;;;;;;4.53;2.53;;;1.70;85.70;;;;;;5063973;28;20424;-79
2021/12/26 02:54:02;;;;;;;4.00;2.83;;;1.80;85.50;;;;;;5064247;28;20470;-80
2021/12/26 02:56:29;;;;;;;4.60;3.17;;;1.80;85.20;;;;;;5064921;28;20193;-79
2021/12/26 02:58:56;;;;;;;4.63;2.80;;;1.80;85.00;;;;;;5065333;28;20595;-79
2021/12/26 03:01:25;;;;;;;7.73;3.23;;;1.90;85.20;;;;;;5060686;28;20435;-79
2021/12/26 03:03:52;;;;;;;6.57;3.90;;;1.90;85.10;;;;;;5061207;28;20470;-79
2021/12/26 03:06:34;;;;;;;3.10;2.60;;;1.90;85.00;;;;;;5061453;28;20424;-79
2021/12/26 03:09:00;;;;;;;4.20;2.80;;;1.90;85.00;;;;;;5062143;28;20655;-79
2021/12/26 03:11:26;;;;;;;6.80;3.80;;;1.90;85.10;;;;;;5083321;28;20404;-78
2021/12/26 03:13:52;;;;;;;8.93;4.63;;;1.90;85.40;;;;;;5060993;28;20170;-78
2021/12/26 03:16:18;;;;;;;6.53;4.27;;;1.90;85.50;;;;;;5059592;28;20444;-79
2021/12/26 03:18:43;;;;;;;5.13;3.20;;;2.00;85.50;;;;;;5058605;28;20196;-79
2021/12/26 03:21:11;;;;;;;5.90;3.30;;;2.00;85.50;;;;;;5064236;28;20200;-80
2021/12/26 03:23:36;;;;;;;4.90;3.60;;;2.00;85.40;;;;;;5080452;28;20234;-79
2021/12/26 03:26:05;;;;;;;5.57;3.43;;;2.00;85.50;;;;;;5072872;28;20468;-80
2021/12/26 03:28:32;;;;;;;5.43;3.27;;;2.00;85.50;;;;;;5074913;28;20428;-78
2021/12/26 03:31:01;;;;;;;6.00;3.20;;;2.00;85.70;;;;;;5063139;28;20420;-79
2021/12/26 03:33:29;;;;;;;5.03;3.57;;;2.00;85.70;;;;;;5064539;28;20427;-79
2021/12/26 03:35:55;;;;;;;6.87;3.63;;;2.00;86.00;;;;;;5066128;28;20439;-79
2021/12/26 03:38:22;;;;;;;6.60;4.57;;;2.10;86.10;;;;;;5067111;28;20721;-77
2021/12/26 03:40:49;;;;;;;5.17;4.17;;;2.00;86.00;;;;;;5070082;28;20470;-78
2021/12/26 03:43:15;;;;;;;5.57;3.63;;;2.00;86.10;;;;;;5067613;28;20420;-77
2021/12/26 03:45:45;;;;;;;4.67;3.23;;;2.00;86.30;;;;;;5070135;28;20428;-78
2021/12/26 03:48:12;;;;;;;5.27;3.57;;;2.10;86.30;;;;;;5072052;28;20416;-78
2021/12/26 03:50:40;;;;;;;6.07;4.40;;;2.10;86.50;;;;;;5071656;28;20527;-78
2021/12/26 03:53:07;;;;;;;7.97;4.53;;;2.10;86.40;;;;;;5069405;28;20485;-78
2021/12/26 03:55:34;;;;;;;8.00;3.63;;;2.10;86.60;;;;;;5077855;28;20419;-78
2021/12/26 03:58:00;;;;;;;5.50;4.07;;;2.10;86.70;;;;;;5073387;28;20424;-78
2021/12/26 04:00:27;;;;;;;6.27;4.10;;;2.00;86.70;;;;;;5065445;28;20641;-79
2021/12/26 04:02:54;;;;;;;6.80;4.00;;;2.10;87.00;;;;;;5066405;28;20431;-79
2021/12/26 04:05:22;;;;;;;6.30;3.80;;;2.10;86.90;;;;;;5073345;28;20463;-79
2021/12/26 04:07:48;;;;;;;7.27;4.37;;;2.10;87.00;;;;;;5089220;28;20419;-79
2021/12/26 04:10:18;;;;;;;7.10;4.70;;;2.10;86.90;;;;;;5077663;28;20471;-79
2021/12/26 04:12:47;;;;;;;4.67;3.67;;;2.10;87.20;;;;;;5073964;28;20488;-79
2021/12/26 04:15:19;;;;;;;5.90;3.60;;;2.10;87.30;;;;;;5073783;28;20522;-81
2021/12/26 04:17:45;;;;;;;5.83;3.70;;;2.10;87.40;;;;;;5072065;28;20446;-79
2021/12/26 04:20:12;;;;;;;5.43;3.80;;;2.10;87.50;;;;;;5094207;28;20564;-79
2021/12/26 04:22:38;;;;;;;5.30;3.77;;;2.10;87.50;;;;;;5092978;28;20230;-79
2021/12/26 04:25:07;;;;;;;4.00;3.00;;;2.10;87.50;;;;;;5095529;28;20423;-80
2021/12/26 04:27:33;;;;;;;5.07;3.23;;;2.10;87.60;;;;;;5095281;28;20674;-79
2021/12/26 04:29:59;;;;;;;5.00;3.90;;;2.10;87.80;;;;;;5094002;28;20459;-79
2021/12/26 04:32:25;;;;;;;6.60;4.10;;;2.10;87.80;;;;;;5075867;28;20446;-79
2021/12/26 04:34:52;;;;;;;8.63;5.30;;;2.10;87.80;;;;;;5076976;28;20224;-79
2021/12/26 04:37:18;;;;;;;8.50;4.60;;;2.20;88.00;;;;;;5073863;28;20451;-79
2021/12/26 04:39:43;;;;;;;6.27;3.80;;;2.10;87.80;;;;;;5072254;28;20416;-79
2021/12/26 04:42:10;;;;;;;7.30;5.47;;;2.10;87.80;;;;;;5079026;28;20169;-79
2021/12/26 04:45:09;;;;;;;5.57;3.83;;;2.10;88.00;;;;;;5077356;28;21118;-79
2021/12/26 04:48:07;;;;;;;8.20;4.10;;;2.10;88.20;;;;;;5077497;28;20562;-79
2021/12/26 04:50:34;;;;;;;6.33;3.97;;;2.10;88.20;;;;;;5083520;28;20482;-78
2021/12/26 04:53:04;;;;;;;5.70;3.60;;;2.10;88.20;;;;;;5066562;28;20477;-79
2021/12/26 04:55:30;;;;;;;4.67;3.67;;;2.10;88.30;;;;;;5083636;28;20428;-78
2021/12/26 04:57:57;;;;;;;7.17;4.03;;;2.10;88.60;;;;;;5068953;28;20165;-78
2021/12/26 05:00:26;;;;;;;6.73;5.00;;;2.00;88.60;;;;;;5080289;28;20178;-79
2021/12/26 05:02:53;;;;;;;6.03;4.30;;;2.00;88.50;;;;;;5062339;28;20428;-79
2021/12/26 05:05:20;;;;;;;6.80;4.77;;;2.00;88.40;;;;;;5063487;28;20443;-79
2021/12/26 05:07:45;;;;;;;6.17;3.90;;;2.00;88.40;;;;;;5064129;28;20425;-79
2021/12/26 05:10:13;;;;;;;5.20;3.33;;;2.00;88.30;;;;;;5046273;28;20462;-78
2021/12/26 05:12:41;;;;;;;7.30;4.80;;;2.00;88.60;;;;;;5080570;28;20734;-79
2021/12/26 05:15:10;;;;;;;6.77;4.40;;;2.10;88.70;;;;;;5078074;28;20564;-79
2021/12/26 05:17:37;;;;;;;5.40;3.83;;;2.10;88.70;;;;;;5077359;28;20408;-79
2021/12/26 05:20:05;;;;;;;7.40;4.90;;;2.10;88.30;;;;;;5063838;28;20412;-79
2021/12/26 05:22:31;;;;;;;7.60;3.97;;;2.10;88.10;;;;;;5063590;28;20416;-79
2021/12/26 05:24:57;;;;;;;6.97;4.10;;;2.10;88.20;;;;;;5062933;28;20428;-79
2021/12/26 05:27:25;;;;;;;10.27;5.00;;;2.10;88.30;;;;;;5080536;28;20416;-79
2021/12/26 05:29:50;;;;;;;7.67;4.93;;;2.10;88.40;;;;;;5069822;28;20448;-79
2021/12/26 05:32:17;;;;;;;7.93;5.27;;;2.10;88.50;;;;;;5062112;28;20181;-79
2021/12/26 05:34:43;;;;;;;5.80;4.40;;;2.10;88.50;;;;;;5046928;28;20448;-79
2021/12/26 05:37:09;;;;;;;5.83;4.17;;;2.10;88.60;;;;;;5063023;28;20450;-79
2021/12/26 05:39:35;;;;;;;6.00;4.37;;;2.10;88.60;;;;;;5072440;28;20560;-79
2021/12/26 05:42:01;;;;;;;7.60;5.27;;;2.10;88.60;;;;;;5085401;28;20464;-79
2021/12/26 05:44:32;;;;;;;9.80;4.50;;;2.10;88.90;;;;;;5090455;28;20451;-79
2021/12/26 05:47:00;;;;;;;7.40;4.50;;;2.10;89.00;;;;;;5088397;28;20489;-79
2021/12/26 05:49:32;;;;;;;5.93;4.43;;;2.10;89.00;;;;;;5073553;28;20455;-79
2021/12/26 05:52:10;;;;;;;7.93;4.77;;;2.20;89.40;;;;;;5089339;28;20411;-79
2021/12/26 05:54:43;;;;;;;8.83;5.37;;;2.20;89.30;;;;;;5070481;28;20430;-79
2021/12/26 05:57:09;;;;;;;7.50;5.43;;;2.20;89.20;;;;;;5066108;28;20412;-79
2021/12/26 05:59:34;;;;;;;7.30;5.70;;;2.20;89.30;;;;;;5069852;28;20165;-79
2021/12/26 06:02:00;;;;;;;7.13;4.80;;;2.20;89.50;;;;;;5079785;28;20619;-78
2021/12/26 06:04:27;;;;;;;9.73;5.57;;;2.20;89.60;;;;;;5081531;28;20460;-78
2021/12/26 06:06:53;;;;;;;8.40;5.23;;;2.20;89.40;;;;;;5062516;28;20405;-78
2021/12/26 06:09:22;;;;;;;7.73;5.27;;;2.20;89.60;;;;;;5068074;28;20188;-79
2021/12/26 06:11:48;;;;;;;6.47;4.77;;;2.20;89.40;;;;;;5080059;28;20404;-79
2021/12/26 06:14:14;;;;;;;10.10;5.53;;;2.20;89.60;;;;;;5074260;28;21010;-79
2021/12/26 06:16:40;;;;;;;9.00;4.93;;;2.30;89.60;;;;;;5060075;28;20412;-79
2021/12/26 06:19:15;;;;;;;7.93;5.07;;;2.20;89.90;;;;;;5065903;28;20434;-79
2021/12/26 06:22:19;;;;;;;9.97;5.57;;;2.20;90.00;;;;;;5058725;28;20506;-78
2021/12/26 06:25:04;;;;;;;8.00;5.17;;;2.20;90.00;;;;;;5075312;28;20542;-79
2021/12/26 06:27:36;;;;;;;6.70;4.50;;;2.20;89.90;;;;;;5076022;28;20477;-78
2021/12/26 06:30:22;;;;;;;7.97;5.47;;;2.20;89.90;;;;;;5061101;28;20582;-79
2021/12/26 06:32:57;;;;;;;8.60;5.90;;;2.30;90.00;;;;;;5074445;28;20439;-77
2021/12/26 06:35:50;;;;;;;10.30;5.70;;;2.30;89.90;;;;;;5079615;28;20473;-79
2021/12/26 06:38:36;;;;;;;9.47;5.33;;;2.30;90.00;;;;;;5081084;28;20456;-79
2021/12/26 06:41:22;;;;;;;7.83;4.33;;;2.20;90.00;;;;;;5061693;28;20469;-79
2021/12/26 06:44:07;;;;;;;10.97;6.87;;;2.20;90.10;;;;;;5063615;28;20442;-80
2021/12/26 06:46:47;;;;;;;8.87;5.67;;;2.20;90.00;;;;;;5076709;28;20494;-78
2021/12/26 06:49:37;;;;;;;7.13;4.53;;;2.20;90.10;;;;;;5075748;28;20817;-77
2021/12/26 06:52:04;;;;;;;7.47;4.83;;;2.20;90.20;;;;;;5057722;28;20407;-78
2021/12/26 06:54:30;;;;;;;9.60;5.43;;;2.30;90.30;;;;;;5068931;28;20447;-78
2021/12/26 06:56:56;;;;;;;7.00;4.60;;;2.30;90.30;;;;;;5058168;28;20420;-79
2021/12/26 06:59:22;;;;;;;8.43;5.00;;;2.30;90.40;;;;;;5061853;28;20443;-78
2021/12/26 07:01:48;;;;;;;9.30;5.20;;;2.30;90.30;;;;;;5060263;28;20420;-79
2021/12/26 07:04:16;;;;;;;8.33;5.40;;;2.30;90.30;;;;;;5051956;28;20236;-79
2021/12/26 07:06:43;;;;;;;9.30;5.80;;;2.30;90.30;;;;;;5069002;28;20845;-79
2021/12/26 07:09:21;;;;;;;7.20;5.00;;;2.30;90.30;;;;;;5065227;28;20485;-79
2021/12/26 07:11:47;;;;;;;9.47;5.83;;;2.30;90.20;;;;;;5065107;28;20934;-79
2021/12/26 07:14:25;;;;;;;11.07;6.10;;;2.30;90.20;;;;;;5064702;28;20431;-78
2021/12/26 07:16:51;;;;;;;7.57;4.77;;;2.30;90.40;;;;;;5062538;28;20419;-79
2021/12/26 07:19:18;;;;;;;9.47;5.90;;;2.30;90.30;;;;;;5061113;28;20416;-78
2021/12/26 07:21:46;;;;;;;8.33;5.67;;;2.30;90.30;;;;;;5059209;28;20419;-78
2021/12/26 07:24:12;;;;;;;10.83;7.03;;;2.30;90.40;;;;;;5063636;28;20868;-79
2021/12/26 07:26:38;;;;;;;8.50;5.30;;;2.30;90.40;;;;;;5060765;28;20486;-78
2021/12/26 07:29:15;;;;;;;6.83;5.30;;;2.30;90.50;;;;;;5046133;28;20455;-78
2021/12/26 07:31:42;;;;;;;11.90;6.57;;;2.30;90.40;;;;;;5061858;28;20422;-78
2021/12/26 07:34:10;;;;;;;12.23;6.33;;;2.30;90.30;;;;;;5046145;28;20497;-79
2021/12/26 07:36:36;;;;;;;7.63;5.30;;;2.30;90.40;;;;;;5064737;28;20860;-79
2021/12/26 07:39:12;;;;;;;8.40;4.97;;;2.30;90.40;;;;;;5081650;28;20180;-79
2021/12/26 07:41:38;;;;;;;10.50;6.30;;;2.30;90.50;;;;;;5084826;28;20419;-78
2021/12/26 07:44:06;;;;;;;7.90;5.93;;;2.30;90.40;;;;;;5083184;28;20179;-79
2021/12/26 07:47:05;;;;;;;7.80;5.50;;;2.30;90.50;;;;;;5055551;28;20417;-78
2021/12/26 07:49:31;;;;;;;10.33;5.90;;;2.30;90.40;;;;;;5085465;28;20967;-78
2021/12/26 07:52:20;;;;;;;7.90;5.93;;;2.30;90.50;;;;;;5076405;28;20484;-78
2021/12/26 07:55:10;;;;;;;8.97;5.20;;;2.30;90.50;;;;;;5068584;28;20446;-81
2021/12/26 07:57:54;;;;;;;9.67;5.97;;;2.30;90.50;;;;;;5064822;28;20431;-78
2021/12/26 08:00:38;;;;;;;9.97;5.60;;;2.30;90.50;;;;;;5064778;28;20967;-78
2021/12/26 08:03:19;;;;;;;12.07;7.07;;;2.30;90.40;;;;;;5071983;28;20443;-79
2021/12/26 08:06:11;;;;;;;7.83;5.73;;;2.30;90.40;;;;;;5063737;28;20431;-79
2021/12/26 08:08:50;;;;;;;9.90;5.73;;;2.40;90.40;;;;;;5088037;28;20424;-79
2021/12/26 08:11:16;;;;;;;12.07;5.73;;;2.30;90.30;;;;;;5068558;28;20419;-78
2021/12/26 08:13:45;;;;;;;9.17;5.63;;;2.40;90.40;;;;;;5065061;28;20416;-79
2021/12/26 08:16:11;;;;;;;9.20;4.90;;;2.40;90.40;;;;;;5066634;28;20177;-78
2021/12/26 08:18:37;;;;;;;9.47;5.63;;;2.40;90.40;;;;;;5067369;28;20404;-78
2021/12/26 08:21:03;;;;;;;8.53;5.23;;;2.50;90.40;;;;;;5072878;28;20265;-79
2021/12/26 08:23:31;;;;;;;10.50;5.50;;;2.50;90.30;;;;;;5072958;28;20181;-78
2021/12/26 08:25:57;;;;;;;9.10;5.60;;;2.60;90.30;;;;;;5070718;28;20489;-79
2021/12/26 08:28:24;;;;;;;12.23;6.40;;;2.60;90.10;;;;;;5065176;28;20510;-80
2021/12/26 08:30:49;;;;;;;11.10;6.50;;;2.60;89.90;;;;;;5081943;28;20204;-79
2021/12/26 08:33:15;;;;;;;8.67;5.73;;;2.60;89.40;;;;;;5083310;28;20411;-80
2021/12/26 08:35:43;;;;;;;7.53;5.60;;;2.60;89.70;;;;;;5086039;28;20201;-80
2021/12/26 08:38:09;;;;;;;9.33;5.77;;;2.60;89.80;;;;;;5078687;28;20495;-80
2021/12/26 08:40:35;;;;;;;9.63;6.30;;;2.70;90.00;;;;;;5088488;28;20404;-79
2021/12/26 08:43:01;;;;;;;10.80;5.40;;;2.60;89.30;;;;;;5075409;28;20495;-79
2021/12/26 08:45:27;;;;;;;10.60;5.90;;;2.60;89.50;;;;;;5090071;28;20443;-80
2021/12/26 08:47:55;;;;;;;10.80;6.80;;;2.70;90.00;;;;;;5087165;28;20605;-79
2021/12/26 08:50:23;;;;;;;10.53;5.17;;;2.70;90.00;;;;;;5081904;28;20447;-80
2021/12/26 08:52:48;;;;;;;9.73;5.83;;;2.70;90.00;;;;;;5072939;28;20523;-77
2021/12/26 08:55:15;;;;;;;8.07;5.90;;;2.60;90.50;;;;;;5074647;28;20423;-77
2021/12/26 08:57:41;;;;;;;8.60;6.20;;;2.70;90.20;;;;;;5070018;28;20161;-77
2021/12/26 09:00:10;;;;;;;10.73;6.40;;;2.70;90.50;;;;;;5069403;28;20788;-77
2021/12/26 09:02:36;;;;;;;9.57;6.20;;;2.80;90.30;;;;;;5060229;28;20505;-77
2021/12/26 09:05:02;;;;;;;8.27;5.57;;;2.80;90.20;;;;;;5063819;28;20527;-76
2021/12/26 09:07:31;;;;;;;10.17;5.70;;;2.80;90.30;;;;;;5061206;28;20481;-78
2021/12/26 09:09:58;;;;;;;10.60;6.23;;;2.80;90.30;;;;;;5056997;28;20451;-77
2021/12/26 09:12:24;;;;;;;10.03;5.87;;;2.80;90.20;;;;;;5055999;28;20435;-78
2021/12/26 09:14:50;;;;;;;11.33;6.73;;;2.90;90.10;;;;;;5058023;28;20440;-77
2021/12/26 09:17:16;;;;;;;10.00;6.50;;;2.90;90.20;;;;;;5058333;28;20633;-77
2021/12/26 09:19:41;;;;;;;13.30;6.60;;;2.90;90.10;;;;;;5060768;28;20483;-76
2021/12/26 09:22:10;;;;;;;9.70;6.43;;;2.90;89.80;;;;;;5066275;28;20827;-77
2021/12/26 09:24:38;;;;;;;10.97;6.20;;;2.90;90.00;;;;;;5061951;28;20181;-77
2021/12/26 09:27:04;;;;;;;10.40;6.20;;;2.90;90.20;;;;;;5072617;28;20435;-77
2021/12/26 09:29:32;;;;;;;9.27;5.87;;;2.90;90.50;;;;;;5062607;28;20447;-77
2021/12/26 09:31:57;;;;;;;11.27;7.90;;;2.80;90.80;;;;;;5056343;28;20418;-76
2021/12/26 09:34:24;;;;;;;10.67;5.97;;;2.80;91.50;;;;;;5060260;28;20953;-76
2021/12/26 09:36:50;;;;;;;13.80;6.40;;;2.80;91.30;;;;;;5053982;28;20170;-77
2021/12/26 09:39:16;;;;;;;11.00;7.03;;;2.80;91.90;;;;;;5068882;28;20415;-77
2021/12/26 09:41:42;;;;;;;10.47;5.77;;;2.80;92.30;;;;;;5073533;28;20926;-77
2021/12/26 09:44:08;;;;;;;17.03;7.27;;;2.70;92.60;;;;;;5074271;28;20219;-76
2021/12/26 09:46:36;;;;;;;10.80;7.27;;;2.70;92.60;;;;;;5067845;28;20206;-77
2021/12/26 09:49:02;;;;;;;11.70;6.30;;;2.70;93.00;;;;;;5071552;28;20458;-77
2021/12/26 09:51:28;;;;;;;11.30;6.10;;;2.70;93.10;;;;;;5072259;28;20477;-77
2021/12/26 09:53:54;;;;;;;14.97;7.57;;;2.70;93.50;;;;;;5072025;28;20427;-74
2021/12/26 09:56:20;;;;;;;12.07;7.03;;;2.70;93.80;;;;;;5058265;28;20162;-74
2021/12/26 09:59:08;;;;;;;12.77;7.50;;;2.70;93.90;;;;;;5063323;28;20172;-73
2021/12/26 10:01:42;;;;;;;11.40;6.37;;;2.70;94.00;;;;;;5070281;28;20423;-74
2021/12/26 10:04:17;;;;;;;10.13;5.30;;;2.70;94.00;;;;;;5063764;28;20451;-74
2021/12/26 10:06:44;;;;;;;9.00;6.33;;;2.70;94.00;;;;;;5060856;28;20423;-75
2021/12/26 10:09:10;;;;;;;17.00;6.73;;;2.70;94.20;;;;;;5061938;28;20455;-74
2021/12/26 10:11:42;;;;;;;12.20;7.53;;;2.70;94.00;;;;;;5065994;28;20410;-74
2021/12/26 10:14:14;;;;;;;10.40;6.43;;;2.70;94.10;;;;;;5068083;28;20443;-74
2021/12/26 10:16:46;;;;;;;11.13;6.00;;;2.80;94.30;;;;;;5071143;28;20415;-75
2021/12/26 10:19:13;;;;;;;12.60;7.53;;;2.90;94.10;;;;;;5073719;28;20408;-74
2021/12/26 10:21:50;;;;;;;12.07;7.00;;;3.00;94.40;;;;;;5076173;28;20568;-75
2021/12/26 10:24:38;;;;;;;11.60;6.87;;;3.20;93.90;;;;;;5077282;28;20427;-74
2021/12/26 10:27:09;;;;;;;12.07;7.27;;;3.40;93.60;;;;;;5074591;28;20426;-76
2021/12/26 10:29:44;;;;;;;11.37;6.10;;;3.50;93.30;;;;;;5076397;28;20451;-75
2021/12/26 10:32:28;;;;;;;12.37;7.00;;;3.70;93.50;;;;;;5075731;28;20415;-74
2021/12/26 10:34:59;;;;;;;11.20;6.80;;;3.80;93.00;;;;;;5070747;28;20972;-74
2021/12/26 10:37:36;;;;;;;10.50;6.80;;;3.80;92.50;;;;;;5057031;28;20493;-73
2021/12/26 10:40:14;;;;;;;10.73;6.50;;;3.90;92.60;;;;;;5060120;28;20423;-72
2021/12/26 10:42:46;;;;;;;10.07;6.87;;;3.90;92.60;;;;;;5061587;28;20422;-73
2021/12/26 10:45:14;;;;;;;10.60;7.43;;;3.90;92.50;;;;;;5065356;28;20434;-74
2021/12/26 10:47:44;;;;;;;12.23;6.30;;;3.90;92.20;;;;;;5078844;28;20408;-73
2021/12/26 10:50:18;;;;;;;9.20;6.20;;;3.90;92.50;;;;;;5065594;28;20451;-74
2021/12/26 10:53:00;;;;;;;10.73;6.00;;;3.80;92.40;;;;;;5080861;28;20411;-74
2021/12/26 10:55:32;;;;;;;12.60;7.67;;;3.80;92.90;;;;;;5072394;28;20467;-74
2021/12/26 10:58:01;;;;;;;11.87;6.70;;;3.70;93.10;;;;;;5060872;28;20901;-74
2021/12/26 11:00:33;;;;;;;11.30;7.13;;;3.70;93.20;;;;;;5069920;28;21094;-72
2021/12/26 11:03:08;;;;;;;13.87;7.43;;;3.70;93.30;;;;;;5083976;28;21079;-75
2021/12/26 11:05:40;;;;;;;10.63;6.80;;;3.70;94.10;;;;;;5076750;28;20439;-74
2021/12/26 11:08:08;;;;;;;12.07;6.47;;;3.60;93.40;;;;;;5066731;28;20419;-74
2021/12/26 11:10:42;;;;;;;10.60;5.80;;;3.60;93.60;;;;;;5061910;28;20459;-76
2021/12/26 11:13:19;;;;;;;12.17;7.07;;;3.60;93.60;;;;;;5061804;28;20399;-74
2021/12/26 11:15:46;;;;;;;11.60;6.93;;;3.60;93.40;;;;;;5076544;28;20461;-73
2021/12/26 11:18:15;;;;;;;10.63;6.40;;;3.70;93.60;;;;;;5081107;28;20491;-73
2021/12/26 11:20:44;;;;;;;10.13;6.00;;;3.80;93.80;;;;;;5080688;28;20452;-75
2021/12/26 11:23:13;;;;;;;11.33;6.20;;;4.00;93.00;;;;;;5080313;28;20407;-74
2021/12/26 11:25:46;;;;;;;11.57;7.00;;;4.00;92.70;;;;;;5060260;28;20473;-74
2021/12/26 11:28:15;;;;;;;10.30;6.43;;;4.10;92.70;;;;;;5080001;28;20419;-73
2021/12/26 11:30:42;;;;;;;11.60;7.13;;;4.20;92.40;;;;;;5064439;28;20550;-74
2021/12/26 11:33:09;;;;;;;12.90;7.00;;;4.20;91.80;;;;;;5079689;28;20505;-74
2021/12/26 11:35:37;;;;;;;10.73;7.23;;;4.20;92.60;;;;;;5062503;28;20449;-74
2021/12/26 11:38:03;;;;;;;13.63;9.50;;;4.20;91.80;;;;;;5066355;28;20412;-74
2021/12/26 11:40:55;;;;;;;10.20;6.30;;;4.10;92.00;;;;;;5065865;28;20478;-74
2021/12/26 11:44:08;;;;;;;16.50;7.70;;;4.10;91.70;;;;;;5065268;28;20426;-74
2021/12/26 11:47:24;;;;;;;11.10;6.87;;;4.10;91.90;;;;;;5062940;28;20426;-74
2021/12/26 11:50:14;;;;;;;9.47;5.80;;;4.10;92.00;;;;;;5067196;28;20481;-74
2021/12/26 11:53:34;;;;;;;10.90;6.53;;;4.10;92.30;;;;;;5016179;28;20453;-74
2021/12/26 11:56:54;;;;;;;12.13;6.53;;;4.20;92.30;;;;;;5062632;28;20450;-74
2021/12/26 11:59:58;;;;;;;10.23;6.43;;;4.20;91.50;;;;;;5070571;28;20560;-74
2021/12/26 12:02:38;;;;;;;12.00;7.80;;;4.10;91.60;;;;;;5073893;28;20492;-72
2021/12/26 12:05:36;;;;;;;11.27;6.47;;;4.10;92.30;;;;;;5065640;28;20505;-74
2021/12/26 12:08:07;;;;;;;10.90;6.03;;;4.20;92.10;;;;;;5060475;28;20424;-75
2021/12/26 12:10:33;;;;;;;10.27;6.10;;;4.20;92.40;;;;;;5069620;28;20431;-74
2021/12/26 12:12:58;;;;;;;10.53;6.30;;;4.30;92.20;;;;;;5062885;28;20419;-75
2021/12/26 12:15:46;;;;;;;12.80;7.80;;;4.40;92.40;;;;;;5067952;28;20211;-75
2021/12/26 12:18:19;;;;;;;9.60;6.53;;;4.40;92.00;;;;;;5061846;28;20818;-75
2021/12/26 12:20:46;;;;;;;11.63;6.80;;;4.40;91.50;;;;;;5071876;28;20465;-73
2021/12/26 12:23:16;;;;;;;11.90;7.60;;;4.30;91.30;;;;;;5062181;28;20451;-74
2021/12/26 12:25:49;;;;;;;9.83;6.20;;;4.20;91.80;;;;;;5064589;28;20447;-74
2021/12/26 12:28:28;;;;;;;9.70;6.10;;;4.30;91.90;;;;;;5075829;28;20958;-74
2021/12/26 12:31:09;;;;;;;10.67;7.00;;;4.30;91.70;;;;;;5069753;28;20448;-74
2021/12/26 12:33:37;;;;;;;10.30;6.33;;;4.30;91.40;;;;;;5059390;28;20833;-74
2021/12/26 12:36:08;;;;;;;13.20;6.97;;;4.30;91.40;;;;;;5071222;28;20439;-74
2021/12/26 12:38:39;;;;;;;11.83;6.50;;;4.40;91.30;;;;;;5074886;28;20836;-74
2021/12/26 12:41:27;;;;;;;9.37;5.90;;;4.40;91.40;;;;;;5067224;28;20459;-76
2021/12/26 12:44:01;;;;;;;9.97;6.20;;;4.40;91.10;;;;;;5081167;28;20469;-78
2021/12/26 12:46:27;;;;;;;9.33;6.13;;;4.30;91.40;;;;;;5067063;28;20436;-74
2021/12/26 12:48:59;;;;;;;11.73;7.20;;;4.30;91.40;;;;;;5071933;28;20838;-74
2021/12/26 12:51:27;;;;;;;10.43;5.90;;;4.30;91.40;;;;;;5069850;28;20424;-73
2021/12/26 12:53:57;;;;;;;9.80;6.90;;;4.30;91.50;;;;;;5080545;28;20433;-75
2021/12/26 12:56:33;;;;;;;11.27;6.50;;;4.20;91.50;;;;;;5077666;28;20406;-74
2021/12/26 12:59:18;;;;;;;9.50;6.33;;;4.20;91.80;;;;;;5074624;28;20435;-74
2021/12/26 13:01:58;;;;;;;13.00;7.33;;;4.20;91.50;;;;;;5074022;28;20420;-75
2021/12/26 13:04:26;;;;;;;9.83;7.40;;;4.10;91.80;;;;;;5060772;28;20473;-74
2021/12/26 13:07:00;;;;;;;9.80;5.27;;;4.10;91.70;;;;;;5056137;28;20420;-73
2021/12/26 13:09:28;;;;;;;10.67;6.93;;;4.10;91.90;;;;;;5056169;28;20988;-75
2021/12/26 13:12:02;;;;;;;13.73;7.33;;;4.10;91.70;;;;;;5054716;28;20408;-74
2021/12/26 13:14:37;;;;;;;9.87;6.70;;;4.20;91.90;;;;;;5071755;28;20504;-75
2021/12/26 13:17:05;;;;;;;11.80;5.93;;;4.20;92.00;;;;;;5068529;28;20403;-72
2021/12/26 13:19:30;;;;;;;8.83;6.27;;;4.20;91.90;;;;;;5058319;28;20427;-74